createdAt,value
2022-10-11T00:02:12.658Z,22.67
2022-10-11T00:04:39.098Z,23.25
2022-10-11T00:07:05.612Z,22.30
2022-10-11T00:09:32.298Z,27.10
2022-10-11T00:11:58.800Z,23.58
2022-10-11T00:14:26.424Z,22.25
2022-10-11T00:16:53.225Z,21.60
2022-10-11T00:19:20.040Z,22.65
2022-10-11T00:21:46.664Z,24.60
2022-10-11T00:24:13.721Z,19.95
2022-10-11T00:26:44.376Z,25.13
2022-10-11T00:29:13.084Z,24.90
2022-10-11T00:31:40.157Z,25.38
2022-10-11T00:34:07.639Z,24.92
2022-10-11T00:36:34.174Z,23.92
2022-10-11T00:39:00.662Z,25.88
2022-10-11T00:41:27.188Z,27.85
2022-10-11T00:44:10.176Z,24.25
2022-10-11T00:46:36.717Z,20.90
2022-10-11T00:49:05.576Z,22.42
2022-10-11T00:51:52.510Z,22.88
2022-10-11T00:54:22.248Z,22.17
2022-10-11T00:56:51.042Z,20.15
2022-10-11T00:59:21.605Z,19.50
2022-10-11T01:01:48.251Z,22.80
2022-10-11T01:04:14.772Z,20.90
2022-10-11T01:06:41.691Z,22.70
2022-10-11T01:09:08.502Z,20.88
2022-10-11T01:11:35.885Z,23.25
2022-10-11T01:14:10.903Z,21.35
2022-10-11T01:16:40.086Z,20.50
2022-10-11T01:19:24.960Z,20.88
2022-10-11T01:21:54.126Z,27.00
2022-10-11T01:24:39.377Z,19.63
2022-10-11T01:27:25.752Z,21.40
2022-10-11T01:30:01.578Z,20.35
2022-10-11T01:32:31.228Z,23.15
2022-10-11T01:35:02.194Z,22.60
2022-10-11T01:37:37.060Z,23.70
2022-10-11T01:40:22.292Z,21.75
2022-10-11T01:42:49.445Z,22.85
2022-10-11T01:45:17.262Z,20.75
2022-10-11T01:47:45.875Z,51.75
2022-10-11T01:50:34.610Z,49.35
2022-10-11T01:53:04.764Z,34.58
2022-10-11T01:55:36.534Z,27.08
2022-10-11T01:58:06.141Z,28.58
2022-10-11T02:00:41.049Z,25.27
2022-10-11T02:03:13.649Z,23.40
2022-10-11T02:06:01.325Z,22.80
2022-10-11T02:08:28.121Z,23.83
2022-10-11T02:11:00.495Z,27.20
2022-10-11T02:13:35.936Z,21.88
2022-10-11T02:16:04.879Z,28.65
2022-10-11T02:18:34.596Z,23.75
2022-10-11T02:21:02.302Z,23.05
2022-10-11T02:23:34.552Z,20.60
2022-10-11T02:26:04.506Z,21.58
2022-10-11T02:28:32.711Z,24.77
2022-10-11T02:31:00.530Z,22.58
2022-10-11T02:33:31.268Z,24.20
2022-10-11T02:36:01.537Z,19.33
2022-10-11T02:38:34.345Z,25.40
2022-10-11T02:41:03.968Z,24.23
2022-10-11T02:43:32.837Z,22.23
2022-10-11T02:46:00.817Z,22.55
2022-10-11T02:48:29.337Z,22.83
2022-10-11T02:50:56.910Z,23.65
2022-10-11T02:53:23.998Z,19.88
2022-10-11T02:55:51.525Z,19.30
2022-10-11T02:58:18.076Z,20.38
2022-10-11T03:00:44.794Z,21.63
2022-10-11T03:03:11.251Z,19.60
2022-10-11T03:05:40.814Z,20.85
2022-10-11T03:08:08.105Z,21.17
2022-10-11T03:10:35.056Z,22.30
2022-10-11T03:13:01.898Z,20.98
2022-10-11T03:15:28.410Z,18.90
2022-10-11T03:17:54.915Z,18.60
2022-10-11T03:20:21.587Z,17.30
2022-10-11T03:22:48.103Z,20.10
2022-10-11T03:25:14.536Z,18.15
2022-10-11T03:27:41.023Z,20.25
2022-10-11T03:30:09.023Z,19.73
2022-10-11T03:32:35.951Z,22.27
2022-10-11T03:35:02.507Z,17.55
2022-10-11T03:37:29.070Z,17.40
2022-10-11T03:39:55.612Z,17.10
2022-10-11T03:42:22.074Z,15.73
2022-10-11T03:44:51.460Z,15.98
2022-10-11T03:47:18.681Z,14.40
2022-10-11T03:49:45.587Z,17.00
2022-10-11T03:52:12.036Z,17.05
2022-10-11T03:54:38.581Z,18.98
2022-10-11T03:57:05.096Z,17.13
2022-10-11T03:59:31.631Z,20.73
2022-10-11T04:01:58.212Z,20.05
2022-10-11T04:04:24.729Z,21.23
2022-10-11T04:06:51.176Z,15.45
2022-10-11T04:09:17.831Z,20.08
2022-10-11T04:11:44.279Z,15.70
2022-10-11T04:14:10.832Z,16.02
2022-10-11T04:16:38.839Z,19.33
2022-10-11T04:19:05.424Z,17.10
2022-10-11T04:21:31.986Z,16.73
2022-10-11T04:23:58.471Z,18.33
2022-10-11T04:26:24.926Z,21.02
2022-10-11T04:28:51.458Z,14.60
2022-10-11T04:31:17.928Z,17.13
2022-10-11T04:33:44.443Z,17.48
2022-10-11T04:36:10.875Z,14.68
2022-10-11T04:38:37.330Z,14.70
2022-10-11T04:41:07.750Z,15.77
2022-10-11T04:43:34.276Z,15.88
2022-10-11T04:46:00.761Z,17.40
2022-10-11T04:48:27.402Z,19.80
2022-10-11T04:50:53.837Z,15.10
2022-10-11T04:53:20.519Z,20.02
2022-10-11T04:55:57.967Z,18.90
2022-10-11T04:58:24.508Z,17.15
2022-10-11T05:00:51.007Z,17.15
2022-10-11T05:03:17.442Z,18.17
2022-10-11T05:05:43.933Z,18.88
2022-10-11T05:08:11.017Z,15.73
2022-10-11T05:10:37.511Z,17.48
2022-10-11T05:13:03.972Z,14.82
2022-10-11T05:15:30.473Z,17.40
2022-10-11T05:17:58.479Z,17.08
2022-10-11T05:20:24.919Z,18.58
2022-10-11T05:22:51.395Z,15.35
2022-10-11T05:25:17.976Z,19.50
2022-10-11T05:27:44.522Z,18.10
2022-10-11T05:30:11.188Z,15.32
2022-10-11T05:32:37.623Z,14.65
2022-10-11T05:35:04.412Z,18.17
2022-10-11T05:37:30.865Z,17.77
2022-10-11T05:39:57.343Z,18.42
2022-10-11T05:42:23.813Z,23.30
2022-10-11T05:44:50.309Z,18.27
2022-10-11T05:47:16.745Z,19.20
2022-10-11T05:49:43.221Z,17.00
2022-10-11T05:52:10.641Z,22.08
2022-10-11T05:54:37.104Z,17.13
2022-10-11T05:57:03.594Z,20.23
2022-10-11T05:59:30.146Z,14.88
2022-10-11T06:01:56.589Z,15.75
2022-10-11T06:04:23.484Z,17.63
2022-10-11T06:06:49.947Z,13.60
2022-10-11T06:09:16.508Z,18.50
2022-10-11T06:11:44.147Z,18.95
2022-10-11T06:14:11.579Z,15.05
2022-10-11T06:16:38.136Z,19.13
2022-10-11T06:19:04.637Z,14.02
2022-10-11T06:21:31.227Z,15.10
2022-10-11T06:24:01.435Z,13.70
2022-10-11T06:26:28.789Z,13.70
2022-10-11T06:28:55.334Z,13.20
2022-10-11T06:31:22.108Z,11.88
2022-10-11T06:33:48.645Z,15.13
2022-10-11T06:36:16.792Z,13.13
2022-10-11T06:38:45.160Z,10.90
2022-10-11T06:41:19.762Z,12.93
2022-10-11T06:43:46.576Z,13.43
2022-10-11T06:46:13.384Z,16.92
2022-10-11T06:48:40.694Z,13.50
2022-10-11T06:51:07.312Z,10.90
2022-10-11T06:53:33.825Z,12.55
2022-10-11T06:56:04.942Z,12.25
2022-10-11T06:58:31.625Z,9.40
2022-10-11T07:01:05.167Z,8.77
2022-10-11T07:03:31.778Z,11.38
2022-10-11T07:06:02.726Z,8.38
2022-10-11T07:08:29.723Z,8.85
2022-10-11T07:10:59.802Z,8.50
2022-10-11T07:13:26.282Z,10.43
2022-10-11T07:15:52.761Z,9.25
2022-10-11T07:18:19.373Z,9.73
2022-10-11T07:20:46.626Z,10.00
2022-10-11T07:23:13.176Z,9.35
2022-10-11T07:25:39.724Z,7.53
2022-10-11T07:28:06.496Z,9.85
2022-10-11T07:30:33.048Z,7.28
2022-10-11T07:32:59.533Z,11.27
2022-10-11T07:35:26.244Z,6.65
2022-10-11T07:37:52.728Z,7.95
2022-10-11T07:40:19.241Z,8.95
2022-10-11T07:42:45.722Z,8.68
2022-10-11T07:45:12.502Z,8.13
2022-10-11T07:47:39.028Z,7.25
2022-10-11T07:50:05.685Z,6.35
2022-10-11T07:52:32.150Z,6.75
2022-10-11T07:54:58.709Z,7.68
2022-10-11T07:57:25.168Z,6.28
2022-10-11T07:59:52.766Z,7.47
2022-10-11T08:02:19.276Z,6.72
2022-10-11T08:04:45.699Z,7.05
2022-10-11T08:07:12.215Z,6.00
2022-10-11T08:09:38.709Z,6.25
2022-10-11T08:12:05.332Z,5.47
2022-10-11T08:14:31.784Z,5.55
2022-10-11T08:16:58.272Z,6.97
2022-10-11T08:19:24.733Z,7.18
2022-10-11T08:21:51.424Z,6.57
2022-10-11T08:24:20.842Z,7.28
2022-10-11T08:26:47.955Z,7.95
2022-10-11T08:29:14.649Z,9.63
2022-10-11T08:31:41.177Z,8.10
2022-10-11T08:34:07.633Z,6.80
2022-10-11T08:36:34.179Z,9.93
2022-10-11T08:39:00.793Z,7.65
2022-10-11T08:41:30.332Z,4.95
2022-10-11T08:44:15.929Z,6.68
2022-10-11T08:46:45.602Z,7.18
2022-10-11T08:49:12.959Z,6.28
2022-10-11T08:51:45.246Z,7.03
2022-10-11T08:54:11.665Z,4.88
2022-10-11T08:56:40.032Z,5.82
2022-10-11T08:59:12.255Z,4.63
2022-10-11T09:01:42.561Z,6.30
2022-10-11T09:04:13.756Z,5.10
2022-10-11T09:06:40.215Z,5.03
2022-10-11T09:09:15.964Z,5.47
2022-10-11T09:11:46.295Z,6.00
2022-10-11T09:14:31.591Z,6.90
2022-10-11T09:17:01.112Z,7.05
2022-10-11T09:19:27.732Z,8.43
2022-10-11T09:22:28.118Z,9.57
2022-10-11T09:25:18.366Z,5.45
2022-10-11T09:28:02.326Z,7.40
2022-10-11T09:30:29.156Z,5.68
2022-10-11T09:33:11.734Z,4.95
2022-10-11T09:35:44.299Z,4.22
2022-10-11T09:38:23.017Z,5.80
2022-10-11T09:41:08.055Z,5.85
2022-10-11T09:43:34.549Z,7.28
2022-10-11T09:46:02.350Z,4.28
2022-10-11T09:48:33.061Z,7.53
2022-10-11T09:51:02.833Z,6.22
2022-10-11T09:53:48.235Z,7.47
2022-10-11T09:56:15.304Z,5.60
2022-10-11T09:58:41.837Z,6.80
2022-10-11T10:01:09.409Z,6.40
2022-10-11T10:03:37.239Z,6.80
2022-10-11T10:06:08.702Z,4.95
2022-10-11T10:08:36.305Z,5.80
2022-10-11T10:11:04.632Z,5.15
2022-10-11T10:13:33.902Z,5.82
2022-10-11T10:16:00.400Z,4.53
2022-10-11T10:18:35.055Z,5.95
2022-10-11T10:21:02.238Z,5.17
2022-10-11T10:23:36.609Z,7.20
2022-10-11T10:26:10.645Z,5.32
2022-10-11T10:28:37.162Z,4.68
2022-10-11T10:31:03.804Z,4.68
2022-10-11T10:33:33.089Z,4.57
2022-10-11T10:36:17.725Z,4.90
2022-10-11T10:38:52.143Z,8.07
2022-10-11T10:41:19.115Z,4.53
2022-10-11T10:43:51.425Z,5.10
2022-10-11T10:46:36.836Z,4.32
2022-10-11T10:49:48.301Z,5.75
2022-10-11T10:52:03.272Z,5.50
2022-10-11T10:54:48.492Z,4.05
2022-10-11T10:57:15.156Z,4.17
2022-10-11T10:59:49.870Z,4.72
2022-10-11T11:02:40.737Z,7.53
2022-10-11T11:05:21.980Z,4.95
2022-10-11T11:08:02.616Z,5.82
2022-10-11T11:10:38.948Z,5.78
2022-10-11T11:13:24.156Z,5.75
2022-10-11T11:15:50.671Z,3.50
2022-10-11T11:18:33.027Z,4.53
2022-10-11T11:21:09.267Z,5.00
2022-10-11T11:23:35.734Z,4.30
2022-10-11T11:26:09.103Z,6.60
2022-10-11T11:28:54.581Z,4.88
2022-10-11T11:31:37.018Z,3.40
2022-10-11T11:34:03.647Z,6.25
2022-10-11T11:36:36.330Z,3.72
2022-10-11T11:39:04.486Z,5.95
2022-10-11T11:41:36.464Z,7.05
2022-10-11T11:44:18.272Z,5.25
2022-10-11T11:46:48.116Z,5.57
2022-10-11T11:49:21.003Z,4.25
2022-10-11T11:51:47.885Z,4.68
2022-10-11T11:54:32.912Z,6.88
2022-10-11T11:57:05.310Z,6.28
2022-10-11T11:59:31.896Z,6.75
2022-10-11T12:02:17.197Z,4.03
2022-10-11T12:04:45.079Z,6.20
2022-10-11T12:07:17.666Z,7.13
2022-10-11T12:09:45.951Z,6.07
2022-10-11T12:12:28.083Z,5.97
2022-10-11T12:15:15.723Z,8.38
2022-10-11T12:17:57.934Z,6.30
2022-10-11T12:20:26.857Z,5.50
2022-10-11T12:22:55.860Z,5.30
2022-10-11T12:25:22.260Z,5.63
2022-10-11T12:27:50.326Z,5.82
2022-10-11T12:30:35.296Z,3.65
2022-10-11T12:33:15.635Z,5.47
2022-10-11T12:35:57.269Z,6.22
2022-10-11T12:38:25.551Z,4.75
2022-10-11T12:40:57.196Z,6.82
2022-10-11T12:43:25.958Z,4.78
2022-10-11T12:45:52.582Z,5.22
2022-10-11T12:48:28.664Z,7.35
2022-10-11T12:51:17.107Z,10.23
2022-10-11T12:54:25.392Z,5.05
2022-10-11T12:56:58.574Z,5.00
2022-10-11T12:59:26.036Z,9.32
2022-10-11T13:01:53.776Z,7.18
2022-10-11T13:04:26.634Z,4.47
2022-10-11T13:06:54.360Z,9.18
2022-10-11T13:09:25.262Z,4.65
2022-10-11T13:11:54.408Z,6.80
2022-10-11T13:14:25.246Z,5.18
2022-10-11T13:17:06.160Z,5.28
2022-10-11T13:19:34.126Z,4.20
2022-10-11T13:22:03.415Z,4.53
2022-10-11T13:24:35.551Z,6.32
2022-10-11T13:27:02.546Z,5.60
2022-10-11T13:29:34.235Z,7.65
2022-10-11T13:32:06.214Z,8.07
2022-10-11T13:34:35.847Z,6.25
2022-10-11T13:37:02.534Z,7.18
2022-10-11T13:39:31.212Z,5.10
2022-10-11T13:42:00.967Z,8.45
2022-10-11T13:44:27.575Z,5.68
2022-10-11T13:46:54.177Z,4.60
2022-10-11T13:49:29.702Z,7.68
2022-10-11T13:51:57.750Z,4.00
2022-10-11T13:54:24.242Z,3.97
2022-10-11T13:56:51.438Z,8.05
2022-10-11T13:59:20.540Z,6.18
2022-10-11T14:01:47.583Z,4.00
2022-10-11T14:04:18.224Z,5.43
2022-10-11T14:07:03.431Z,7.45
2022-10-11T14:09:30.920Z,4.65
2022-10-11T14:12:17.393Z,6.97
2022-10-11T14:14:43.940Z,3.15
2022-10-11T14:17:10.410Z,3.53
2022-10-11T14:19:37.395Z,3.83
2022-10-11T14:22:05.066Z,3.88
2022-10-11T14:24:31.842Z,5.32
2022-10-11T14:26:59.176Z,4.63
2022-10-11T14:29:25.707Z,5.57
2022-10-11T14:31:56.108Z,6.88
2022-10-11T14:34:23.530Z,6.63
2022-10-11T14:36:50.558Z,5.95
2022-10-11T14:39:18.215Z,8.07
2022-10-11T14:41:44.856Z,9.52
2022-10-11T14:44:11.855Z,6.15
2022-10-11T14:46:41.460Z,4.65
2022-10-11T14:49:14.955Z,6.00
2022-10-11T14:51:42.130Z,5.38
2022-10-11T14:54:08.765Z,6.78
2022-10-11T14:56:35.281Z,6.90
2022-10-11T14:59:01.819Z,5.70
2022-10-11T15:01:28.316Z,4.32
2022-10-11T15:03:54.951Z,7.68
2022-10-11T15:06:22.825Z,7.68
2022-10-11T15:08:49.287Z,7.78
2022-10-11T15:11:17.290Z,6.65
2022-10-11T15:13:43.974Z,4.68
2022-10-11T15:16:12.048Z,4.38
2022-10-11T15:18:39.090Z,9.40
2022-10-11T15:21:05.928Z,7.10
2022-10-11T15:23:32.443Z,6.03
2022-10-11T15:25:58.957Z,7.28
2022-10-11T15:28:31.452Z,5.20
2022-10-11T15:30:58.180Z,5.72
2022-10-11T15:33:25.197Z,5.53
2022-10-11T15:35:51.778Z,5.68
2022-10-11T15:38:19.698Z,9.82
2022-10-11T15:40:46.927Z,6.03
2022-10-11T15:43:13.561Z,6.53
2022-10-11T15:45:40.196Z,6.68
2022-10-11T15:48:08.978Z,6.78
2022-10-11T15:50:38.901Z,6.20
2022-10-11T15:53:09.451Z,4.38
2022-10-11T15:55:40.445Z,7.95
2022-10-11T15:58:10.660Z,5.45
2022-10-11T16:00:37.214Z,7.78
2022-10-11T16:03:03.777Z,7.00
2022-10-11T16:05:30.464Z,9.23
2022-10-11T16:07:57.059Z,8.20
2022-10-11T16:10:23.585Z,10.32
2022-10-11T16:12:50.118Z,14.00
2022-10-11T16:15:17.022Z,11.88
2022-10-11T16:17:43.649Z,15.45
2022-10-11T16:20:10.317Z,12.73
2022-10-11T16:22:36.852Z,12.65
2022-10-11T16:25:03.975Z,12.25
2022-10-11T16:27:30.540Z,13.50
2022-10-11T16:29:57.145Z,8.85
2022-10-11T16:32:24.408Z,11.77
2022-10-11T16:34:51.087Z,15.35
2022-10-11T16:37:18.310Z,15.60
2022-10-11T16:39:44.877Z,24.75
2022-10-11T16:42:11.824Z,23.38
2022-10-11T16:44:39.391Z,14.70
2022-10-11T16:47:06.669Z,75.15
2022-10-11T16:49:33.427Z,39.53
2022-10-11T16:52:00.800Z,23.50
2022-10-11T16:54:30.212Z,25.17
2022-10-11T16:56:57.596Z,34.40
2022-10-11T16:59:24.107Z,70.15
2022-10-11T17:01:53.006Z,83.22
2022-10-11T17:04:19.921Z,69.13
2022-10-11T17:06:46.488Z,68.22
2022-10-11T17:09:13.418Z,49.78
2022-10-11T17:11:40.729Z,31.17
2022-10-11T17:14:07.799Z,17.13
2022-10-11T17:16:34.532Z,25.20
2022-10-11T17:19:01.299Z,15.35
2022-10-11T17:21:28.200Z,15.32
2022-10-11T17:23:54.784Z,23.83
2022-10-11T17:26:24.953Z,16.40
2022-10-11T17:28:51.570Z,24.63
2022-10-11T17:31:18.427Z,23.23
2022-10-11T17:33:45.052Z,28.05
2022-10-11T17:36:16.198Z,23.77
2022-10-11T17:38:42.739Z,33.28
2022-10-11T17:41:10.063Z,33.25
2022-10-11T17:43:36.554Z,35.75
2022-10-11T17:46:05.995Z,30.25
2022-10-11T17:48:33.882Z,37.97
2022-10-11T17:51:05.259Z,41.30
2022-10-11T17:53:31.944Z,42.78
2022-10-11T17:55:59.014Z,38.67
2022-10-11T17:58:27.038Z,33.17
2022-10-11T18:00:54.914Z,38.72
2022-10-11T18:03:21.549Z,44.22
2022-10-11T18:05:48.023Z,38.45
2022-10-11T18:08:15.315Z,44.65
2022-10-11T18:10:45.297Z,69.95
2022-10-11T18:13:15.435Z,62.95
2022-10-11T18:15:42.056Z,62.03
2022-10-11T18:18:10.917Z,62.53
2022-10-11T18:20:37.368Z,71.38
2022-10-11T18:23:04.014Z,73.13
2022-10-11T18:25:33.592Z,72.25
2022-10-11T18:28:00.146Z,97.10
2022-10-11T18:30:26.820Z,78.20
2022-10-11T18:32:53.373Z,46.40
2022-10-11T18:35:19.933Z,38.47
2022-10-11T18:37:46.485Z,42.88
2022-10-11T18:40:13.034Z,42.10
2022-10-11T18:42:39.514Z,66.80
2022-10-11T18:45:08.516Z,62.90
2022-10-11T18:47:34.975Z,61.33
2022-10-11T18:50:01.815Z,56.88
2022-10-11T18:52:28.248Z,70.20
2022-10-11T18:54:54.799Z,77.95
2022-10-11T18:57:21.352Z,62.10
2022-10-11T18:59:47.852Z,46.92
2022-10-11T19:02:14.280Z,45.55
2022-10-11T19:04:41.423Z,44.30
2022-10-11T19:07:07.951Z,42.83
2022-10-11T19:09:34.613Z,59.72
2022-10-11T19:12:01.689Z,69.93
2022-10-11T19:14:30.172Z,87.68
2022-10-11T19:16:57.084Z,65.10
2022-10-11T19:19:25.047Z,66.38
2022-10-11T19:21:51.648Z,52.22
2022-10-11T19:24:18.939Z,45.90
2022-10-11T19:26:45.428Z,56.63
2022-10-11T19:29:16.637Z,44.47
2022-10-11T19:31:47.578Z,37.70
2022-10-11T19:34:15.740Z,36.13
2022-10-11T19:36:42.938Z,33.25
2022-10-11T19:39:13.430Z,35.05
2022-10-11T19:41:40.188Z,38.80
2022-10-11T19:44:06.654Z,36.20
2022-10-11T19:49:22.882Z,39.15
2022-10-11T19:51:50.768Z,31.25
2022-10-11T19:54:17.374Z,25.90
2022-10-11T19:56:44.135Z,33.28
2022-10-11T19:59:11.734Z,32.72
2022-10-11T20:01:38.408Z,31.10
2022-10-11T20:04:06.876Z,29.55
2022-10-11T20:06:38.072Z,32.72
2022-10-11T20:09:28.103Z,33.10
2022-10-11T20:11:52.768Z,41.85
2022-10-11T20:14:19.344Z,41.50
2022-10-11T20:16:45.882Z,42.17
2022-10-11T20:19:12.411Z,28.00
2022-10-11T20:21:38.909Z,24.63
2022-10-11T20:24:08.996Z,26.45
2022-10-11T20:26:36.877Z,25.60
2022-10-11T20:29:03.472Z,26.02
2022-10-11T20:31:34.091Z,23.13
2022-10-11T20:34:02.247Z,47.38
2022-10-11T20:36:30.717Z,74.78
2022-10-11T20:38:58.178Z,29.13
2022-10-11T20:41:29.785Z,47.50
2022-10-11T20:43:58.200Z,42.20
2022-10-11T20:46:26.472Z,37.97
2022-10-11T20:49:00.419Z,32.40
2022-10-11T20:51:28.556Z,36.42
2022-10-11T20:53:55.708Z,32.85
2022-10-11T20:56:22.790Z,41.75
2022-10-11T20:58:52.765Z,45.75
2022-10-11T21:01:26.298Z,36.42
2022-10-11T21:03:53.175Z,31.05
2022-10-11T21:06:19.853Z,35.90
2022-10-11T21:08:46.309Z,39.47
2022-10-11T21:11:12.820Z,42.53
2022-10-11T21:13:39.269Z,43.75
2022-10-11T21:16:07.066Z,34.70
2022-10-11T21:18:33.978Z,37.15
2022-10-11T21:21:27.076Z,33.50
2022-10-11T21:23:55.626Z,39.30
2022-10-11T21:26:22.191Z,35.85
2022-10-11T21:28:49.125Z,35.88
2022-10-11T21:31:16.671Z,44.45
2022-10-11T21:33:43.589Z,53.38
2022-10-11T21:36:17.535Z,50.35
2022-10-11T21:38:44.328Z,46.85
2022-10-11T21:41:12.499Z,38.30
2022-10-11T21:43:40.224Z,54.70
2022-10-11T21:47:01.350Z,39.42
2022-10-11T21:49:21.423Z,40.28
2022-10-11T21:51:47.960Z,54.75
2022-10-11T21:54:14.592Z,35.45
2022-10-11T21:56:41.112Z,42.75
2022-10-11T21:59:11.120Z,34.80
2022-10-11T22:01:39.359Z,30.58
2022-10-11T22:04:07.622Z,34.00
2022-10-11T22:06:34.565Z,34.13
2022-10-11T22:09:01.014Z,29.88
2022-10-11T22:11:27.679Z,39.03
2022-10-11T22:13:54.127Z,36.47
2022-10-11T22:16:20.848Z,24.08
2022-10-11T22:18:47.501Z,31.17
2022-10-11T22:21:18.036Z,26.27
2022-10-11T22:23:45.840Z,28.10
2022-10-11T22:26:16.285Z,30.95
2022-10-11T22:28:42.993Z,28.63
2022-10-11T22:31:10.280Z,30.55
2022-10-11T22:33:37.381Z,25.73
2022-10-11T22:36:05.552Z,24.48
2022-10-11T22:38:32.244Z,25.00
2022-10-11T22:40:58.854Z,27.23
2022-10-11T22:43:25.411Z,24.40
2022-10-11T22:45:51.878Z,34.17
2022-10-11T22:48:18.380Z,39.45
2022-10-11T22:50:44.935Z,30.55
2022-10-11T22:53:12.339Z,29.40
2022-10-11T22:55:39.057Z,30.00
2022-10-11T22:58:05.528Z,27.15
2022-10-11T23:00:32.090Z,24.83
2022-10-11T23:02:58.696Z,23.52
2022-10-11T23:05:25.205Z,30.02
2022-10-11T23:07:51.662Z,26.65
2022-10-11T23:10:18.315Z,42.10
2022-10-11T23:12:44.812Z,28.67
2022-10-11T23:15:11.709Z,24.70
2022-10-11T23:17:38.436Z,23.20
2022-10-11T23:20:05.407Z,27.67
2022-10-11T23:22:31.868Z,27.90
2022-10-11T23:24:58.330Z,26.67
2022-10-11T23:27:24.807Z,36.13
2022-10-11T23:29:51.312Z,23.45
2022-10-11T23:32:18.047Z,32.25
2022-10-11T23:34:44.544Z,33.38
2022-10-11T23:37:10.988Z,34.15
2022-10-11T23:39:37.522Z,31.17
2022-10-11T23:42:04.233Z,39.85
2022-10-11T23:44:30.810Z,37.03
2022-10-11T23:46:57.272Z,37.40
2022-10-11T23:49:23.807Z,32.22
2022-10-11T23:51:51.510Z,41.00
2022-10-11T23:54:18.040Z,31.17
2022-10-11T23:56:46.932Z,31.88
2022-10-11T23:59:13.497Z,23.48
